createdAt,value
2023-01-20T00:01:35.292Z,53.68
2023-01-20T00:06:34.413Z,53.43
2023-01-20T00:11:33.325Z,53.59
2023-01-20T00:16:33.596Z,53.92
2023-01-20T00:21:35.101Z,54.00
2023-01-20T00:26:34.149Z,54.27
2023-01-20T00:31:33.626Z,54.48
2023-01-20T00:36:34.457Z,54.44
2023-01-20T00:41:33.507Z,54.27
2023-01-20T00:46:32.390Z,54.02
2023-01-20T00:51:31.181Z,54.65
2023-01-20T00:56:31.360Z,54.67
2023-01-20T01:01:30.160Z,54.21
2023-01-20T01:06:28.995Z,53.95
2023-01-20T01:11:27.820Z,54.21
2023-01-20T01:16:27.989Z,54.09
2023-01-20T01:21:27.182Z,53.90
2023-01-20T01:26:25.892Z,53.76
2023-01-20T01:31:24.675Z,54.80
2023-01-20T01:36:24.819Z,54.66
2023-01-20T01:41:23.534Z,54.83
2023-01-20T01:46:22.248Z,54.66
2023-01-20T01:51:26.885Z,54.96
2023-01-20T01:56:27.529Z,55.65
2023-01-20T02:01:27.699Z,55.44
2023-01-20T02:06:33.224Z,56.21
2023-01-20T02:11:36.276Z,56.17
2023-01-20T02:16:39.382Z,56.95
2023-01-20T02:22:11.795Z,56.52
2023-01-20T02:27:15.738Z,56.16
2023-01-20T02:32:36.631Z,56.20
2023-01-20T02:37:46.879Z,56.93
2023-01-20T02:42:49.907Z,58.17
2023-01-20T02:47:57.653Z,58.77
2023-01-20T02:53:00.127Z,59.19
2023-01-20T02:58:03.388Z,60.17
2023-01-20T03:03:09.193Z,59.06
2023-01-20T03:08:11.894Z,58.84
2023-01-20T03:13:14.902Z,59.16
2023-01-20T03:18:15.069Z,58.37
2023-01-20T03:23:13.936Z,59.67
2023-01-20T03:28:12.944Z,59.92
2023-01-20T03:33:13.735Z,58.95
2023-01-20T03:38:14.180Z,59.84
2023-01-20T03:43:18.477Z,61.54
2023-01-20T03:48:25.834Z,61.30
2023-01-20T03:53:33.064Z,60.09
2023-01-20T03:58:36.071Z,59.70
2023-01-20T04:03:39.801Z,59.92
2023-01-20T04:08:47.160Z,59.04
2023-01-20T04:13:45.972Z,58.78
2023-01-20T04:18:49.109Z,58.50
2023-01-20T04:23:52.629Z,58.29
2023-01-20T04:28:51.296Z,58.98
2023-01-20T04:33:50.154Z,59.00
2023-01-20T04:38:50.375Z,59.12
2023-01-20T04:43:49.345Z,61.48
2023-01-20T04:48:48.118Z,61.46
2023-01-20T04:53:46.862Z,61.44
2023-01-20T04:58:49.478Z,62.34
2023-01-20T05:03:48.494Z,62.89
2023-01-20T05:08:47.180Z,62.95
2023-01-20T05:13:47.271Z,62.73
2023-01-20T05:18:45.935Z,62.11
2023-01-20T05:23:44.682Z,62.38
2023-01-20T05:28:45.582Z,62.15
2023-01-20T05:33:45.782Z,62.67
2023-01-20T05:38:44.531Z,61.85
2023-01-20T05:43:43.355Z,61.07
2023-01-20T05:48:42.102Z,61.08
2023-01-20T05:53:42.209Z,60.43
2023-01-20T05:58:40.902Z,59.42
2023-01-20T06:03:40.356Z,58.95
2023-01-20T06:08:39.083Z,58.42
2023-01-20T06:13:39.699Z,58.42
2023-01-20T06:18:38.575Z,58.20
2023-01-20T06:23:37.382Z,57.58
2023-01-20T06:28:36.181Z,57.05
2023-01-20T06:33:36.796Z,56.76
2023-01-20T06:38:36.701Z,56.91
2023-01-20T06:43:40.105Z,56.40
2023-01-20T06:48:40.631Z,55.81
2023-01-20T06:53:39.740Z,55.78
2023-01-20T06:58:38.615Z,55.57
2023-01-20T07:03:37.479Z,56.22
2023-01-20T07:08:37.615Z,56.58
2023-01-20T07:13:37.092Z,56.38
2023-01-20T07:18:35.892Z,57.55
2023-01-20T07:23:34.699Z,57.45
2023-01-20T07:28:36.216Z,58.21
2023-01-20T07:33:35.637Z,59.03
2023-01-20T07:38:34.561Z,58.49
2023-01-20T07:43:35.504Z,60.05
2023-01-20T07:48:35.075Z,60.22
2023-01-20T07:53:37.074Z,60.55
2023-01-20T07:58:37.292Z,60.44
2023-01-20T08:03:36.304Z,60.88
2023-01-20T08:08:36.006Z,61.21
2023-01-20T08:13:36.536Z,61.64
2023-01-20T08:18:36.667Z,61.89
2023-01-20T08:23:36.156Z,63.81
2023-01-20T08:28:37.243Z,62.30
2023-01-20T08:33:36.128Z,62.33
2023-01-20T08:38:35.612Z,61.43
2023-01-20T08:43:34.532Z,60.88
2023-01-20T08:48:35.118Z,60.82
2023-01-20T08:53:33.932Z,59.81
2023-01-20T08:58:33.015Z,59.51
2023-01-20T09:03:33.151Z,59.16
2023-01-20T09:08:34.062Z,59.15
2023-01-20T09:13:32.777Z,59.92
2023-01-20T09:18:31.917Z,59.09
2023-01-20T09:23:30.670Z,58.08
2023-01-20T09:28:31.187Z,58.22
2023-01-20T09:33:29.909Z,58.41
2023-01-20T09:38:46.403Z,57.53
2023-01-20T09:44:02.098Z,56.59
2023-01-20T09:49:27.966Z,56.23
2023-01-20T09:54:33.523Z,55.06
2023-01-20T09:59:40.550Z,53.31
2023-01-20T10:04:47.046Z,51.40
2023-01-20T10:09:54.404Z,49.62
2023-01-20T10:14:59.460Z,46.88
2023-01-20T10:20:04.805Z,44.74
2023-01-20T10:25:08.563Z,43.54
2023-01-20T10:30:12.085Z,43.25
2023-01-20T10:35:17.402Z,43.79
2023-01-20T10:40:26.306Z,43.73
2023-01-20T10:45:37.947Z,44.18
2023-01-20T10:50:47.791Z,43.28
2023-01-20T10:55:58.211Z,43.35
2023-01-20T11:01:01.181Z,44.04
2023-01-20T11:06:00.037Z,44.83
2023-01-20T11:11:02.073Z,44.35
2023-01-20T11:16:05.943Z,45.08
2023-01-20T11:21:07.244Z,45.41
2023-01-20T11:26:11.080Z,46.29
2023-01-20T11:31:12.242Z,46.51
2023-01-20T11:36:19.961Z,46.67
2023-01-20T11:41:23.216Z,47.22
2023-01-20T11:46:30.302Z,46.71
2023-01-20T11:51:29.830Z,46.08
2023-01-20T11:56:29.117Z,46.06
2023-01-20T12:01:32.882Z,46.19
2023-01-20T12:06:36.302Z,46.79
2023-01-20T12:11:38.531Z,47.13
2023-01-20T12:16:40.195Z,47.05
2023-01-20T12:21:44.189Z,47.29
2023-01-20T12:26:42.947Z,46.04
2023-01-20T12:31:48.974Z,46.39
2023-01-20T12:37:04.470Z,45.70
2023-01-20T12:42:39.943Z,46.04
2023-01-20T12:47:54.984Z,45.96
2023-01-20T12:53:17.073Z,45.25
2023-01-20T12:58:24.759Z,45.18
2023-01-20T13:03:57.898Z,45.54
2023-01-20T13:09:00.567Z,46.01
2023-01-20T13:14:09.659Z,46.49
2023-01-20T13:19:15.295Z,46.99
2023-01-20T13:24:19.189Z,48.17
2023-01-20T13:29:23.992Z,48.56
2023-01-20T13:34:42.338Z,48.96
2023-01-20T13:39:43.131Z,48.78
2023-01-20T13:44:42.639Z,48.97
2023-01-20T13:49:53.078Z,48.69
2023-01-20T13:54:51.838Z,48.38
2023-01-20T13:59:50.887Z,49.46
2023-01-20T14:04:51.702Z,50.07
2023-01-20T14:09:53.370Z,50.15
2023-01-20T14:14:52.341Z,49.69
2023-01-20T14:19:54.712Z,49.21
2023-01-20T14:24:57.293Z,49.16
2023-01-20T14:29:58.322Z,49.22
2023-01-20T14:34:59.429Z,49.64
2023-01-20T14:40:00.651Z,51.69
2023-01-20T14:44:59.756Z,52.73
2023-01-20T14:50:00.039Z,53.03
2023-01-20T14:54:59.307Z,53.46
2023-01-20T15:00:14.768Z,54.16
2023-01-20T15:05:32.192Z,55.08
2023-01-20T15:10:31.202Z,55.30
2023-01-20T15:15:32.022Z,56.10
2023-01-20T15:20:33.906Z,56.15
2023-01-20T15:25:32.600Z,56.85
2023-01-20T15:30:33.779Z,57.66
2023-01-20T15:35:34.530Z,57.70
2023-01-20T15:40:33.437Z,57.28
2023-01-20T15:45:32.375Z,56.98
2023-01-20T15:50:33.103Z,57.70
2023-01-20T15:55:33.421Z,56.94
2023-01-20T16:00:33.488Z,57.37
2023-01-20T16:05:32.572Z,58.02
2023-01-20T16:10:33.030Z,58.48
2023-01-20T16:15:31.963Z,58.63
2023-01-20T16:20:31.097Z,58.39
2023-01-20T16:25:30.713Z,57.45
2023-01-20T16:30:31.266Z,56.67
2023-01-20T16:35:30.794Z,56.37
2023-01-20T16:40:31.305Z,57.21
2023-01-20T16:45:31.687Z,57.37
2023-01-20T16:50:30.582Z,58.41
2023-01-20T16:55:29.464Z,59.85
2023-01-20T17:00:28.390Z,60.01
2023-01-20T17:05:29.311Z,60.48
2023-01-20T17:10:30.087Z,60.57
2023-01-20T17:15:29.367Z,60.75
2023-01-20T17:20:32.665Z,60.62
2023-01-20T17:25:32.985Z,61.11
2023-01-20T17:30:33.384Z,66.17
2023-01-20T17:35:33.923Z,70.58
2023-01-20T17:40:32.955Z,74.04
2023-01-20T17:45:32.156Z,77.02
2023-01-20T17:50:30.995Z,78.99
2023-01-20T17:55:31.540Z,78.80
2023-01-20T18:00:31.698Z,79.90
2023-01-20T18:05:31.752Z,81.28
2023-01-20T18:10:32.666Z,81.22
2023-01-20T18:15:32.858Z,81.14
2023-01-20T18:20:34.438Z,82.53
2023-01-20T18:25:35.737Z,82.40
2023-01-20T18:30:34.772Z,81.89
2023-01-20T18:35:39.690Z,82.19
2023-01-20T18:40:39.830Z,83.80
2023-01-20T18:45:42.138Z,83.93
2023-01-20T18:50:42.884Z,86.98
2023-01-20T18:55:53.874Z,87.28
2023-01-20T19:00:56.571Z,85.42
2023-01-20T19:06:04.474Z,85.21
2023-01-20T19:11:09.483Z,84.22
2023-01-20T19:16:11.131Z,83.37
2023-01-20T19:21:13.764Z,82.51
2023-01-20T19:26:19.129Z,82.11
2023-01-20T19:31:21.708Z,84.17
2023-01-20T19:36:24.639Z,83.77
2023-01-20T19:41:28.441Z,82.35
2023-01-20T19:46:30.914Z,82.52
2023-01-20T19:51:31.374Z,82.72
2023-01-20T19:56:33.229Z,80.82
2023-01-20T20:01:36.491Z,80.78
2023-01-20T20:06:38.150Z,79.22
2023-01-20T20:11:43.200Z,78.07
2023-01-20T20:16:47.471Z,78.48
2023-01-20T20:21:50.258Z,78.69
2023-01-20T20:26:53.419Z,80.04
2023-01-20T20:31:55.810Z,80.27
2023-01-20T20:36:56.566Z,79.04
2023-01-20T20:41:58.088Z,78.75
2023-01-20T20:46:58.416Z,77.71
2023-01-20T20:51:59.232Z,76.23
2023-01-20T20:57:03.263Z,76.30
2023-01-20T21:02:07.217Z,75.97
2023-01-20T21:07:06.151Z,75.92
2023-01-20T21:12:06.738Z,74.17
2023-01-20T21:17:05.645Z,74.52
2023-01-20T21:22:04.561Z,75.68
2023-01-20T21:27:03.638Z,75.20
2023-01-20T21:32:04.055Z,77.56
2023-01-20T21:37:02.808Z,78.05
2023-01-20T21:42:01.807Z,77.17
2023-01-20T21:47:02.249Z,78.01
2023-01-20T21:52:20.237Z,78.12
2023-01-20T21:57:19.045Z,77.43
2023-01-20T22:02:18.070Z,78.38
2023-01-20T22:07:18.642Z,77.83
2023-01-20T22:12:17.629Z,76.37
2023-01-20T22:17:16.498Z,76.45
2023-01-20T22:22:27.807Z,76.78
2023-01-20T22:27:27.525Z,77.22
2023-01-20T22:32:26.309Z,76.84
2023-01-20T22:37:26.461Z,77.86
2023-01-20T22:42:25.369Z,77.85
2023-01-20T22:47:27.444Z,78.38
2023-01-20T22:52:28.936Z,77.33
2023-01-20T22:57:31.731Z,77.46
2023-01-20T23:02:40.891Z,77.68
2023-01-20T23:07:41.114Z,76.72
2023-01-20T23:12:39.953Z,76.16
2023-01-20T23:17:38.674Z,76.15
2023-01-20T23:22:37.372Z,74.06
2023-01-20T23:27:37.457Z,72.02
2023-01-20T23:32:36.356Z,70.73
2023-01-20T23:37:35.151Z,70.66
2023-01-20T23:42:33.899Z,70.83
2023-01-20T23:47:33.964Z,70.98
2023-01-20T23:52:32.804Z,70.35
2023-01-20T23:57:31.563Z,71.34
